sensor_id;sensor_type;location;lat;lon;timestamp;P1;durP1;ratioP1;P2;durP2;ratioP2
13012;SDS011;22580;57.670;12.006;2023-04-28T00:01:17;0.40;;;0.30;;
13012;SDS011;22580;57.670;12.006;2023-04-28T00:03:44;0.50;;;0.30;;
13012;SDS011;22580;57.670;12.006;2023-04-28T00:06:11;0.20;;;0.20;;
13012;SDS011;22580;57.670;12.006;2023-04-28T00:08:38;0.30;;;0.30;;
13012;SDS011;22580;57.670;12.006;2023-04-28T00:11:09;0.30;;;0.30;;
13012;SDS011;22580;57.670;12.006;2023-04-28T00:13:36;0.27;;;0.27;;
13012;SDS011;22580;57.670;12.006;2023-04-28T00:16:03;0.50;;;0.20;;
13012;SDS011;22580;57.670;12.006;2023-04-28T00:18:30;0.47;;;0.30;;
13012;SDS011;22580;57.670;12.006;2023-04-28T00:20:58;0.30;;;0.27;;
13012;SDS011;22580;57.670;12.006;2023-04-28T00:23:25;0.67;;;0.30;;
13012;SDS011;22580;57.670;12.006;2023-04-28T00:25:52;0.37;;;0.30;;
13012;SDS011;22580;57.670;12.006;2023-04-28T00:28:21;0.30;;;0.30;;
13012;SDS011;22580;57.670;12.006;2023-04-28T00:30:48;0.50;;;0.50;;
13012;SDS011;22580;57.670;12.006;2023-04-28T00:33:15;0.20;;;0.20;;
13012;SDS011;22580;57.670;12.006;2023-04-28T00:35:42;0.30;;;0.30;;
13012;SDS011;22580;57.670;12.006;2023-04-28T00:38:09;0.20;;;0.20;;
13012;SDS011;22580;57.670;12.006;2023-04-28T00:40:37;0.20;;;0.20;;
13012;SDS011;22580;57.670;12.006;2023-04-28T00:43:04;0.37;;;0.20;;
13012;SDS011;22580;57.670;12.006;2023-04-28T00:45:33;0.20;;;0.20;;
13012;SDS011;22580;57.670;12.006;2023-04-28T00:48:00;0.20;;;0.20;;
13012;SDS011;22580;57.670;12.006;2023-04-28T00:50:27;0.63;;;0.20;;
13012;SDS011;22580;57.670;12.006;2023-04-28T00:52:54;0.77;;;0.50;;
13012;SDS011;22580;57.670;12.006;2023-04-28T00:55:21;0.40;;;0.30;;
13012;SDS011;22580;57.670;12.006;2023-04-28T00:57:51;0.20;;;0.20;;
13012;SDS011;22580;57.670;12.006;2023-04-28T01:00:21;0.20;;;0.20;;
13012;SDS011;22580;57.670;12.006;2023-04-28T01:02:50;0.20;;;0.20;;
13012;SDS011;22580;57.670;12.006;2023-04-28T01:05:18;0.20;;;0.20;;
13012;SDS011;22580;57.670;12.006;2023-04-28T01:07:46;0.37;;;0.33;;
13012;SDS011;22580;57.670;12.006;2023-04-28T01:10:12;0.27;;;0.27;;
13012;SDS011;22580;57.670;12.006;2023-04-28T01:12:39;0.53;;;0.40;;
13012;SDS011;22580;57.670;12.006;2023-04-28T01:15:06;0.50;;;0.30;;
13012;SDS011;22580;57.670;12.006;2023-04-28T01:17:40;0.40;;;0.30;;
13012;SDS011;22580;57.670;12.006;2023-04-28T01:20:11;0.67;;;0.40;;
13012;SDS011;22580;57.670;12.006;2023-04-28T01:22:38;0.37;;;0.30;;
13012;SDS011;22580;57.670;12.006;2023-04-28T01:25:07;0.37;;;0.37;;
13012;SDS011;22580;57.670;12.006;2023-04-28T01:27:34;0.40;;;0.30;;
13012;SDS011;22580;57.670;12.006;2023-04-28T01:30:01;0.40;;;0.30;;
13012;SDS011;22580;57.670;12.006;2023-04-28T01:32:27;0.27;;;0.27;;
13012;SDS011;22580;57.670;12.006;2023-04-28T01:34:54;0.20;;;0.20;;
13012;SDS011;22580;57.670;12.006;2023-04-28T01:37:21;0.10;;;0.10;;
13012;SDS011;22580;57.670;12.006;2023-04-28T01:39:48;0.20;;;0.20;;
13012;SDS011;22580;57.670;12.006;2023-04-28T01:42:16;0.10;;;0.10;;
13012;SDS011;22580;57.670;12.006;2023-04-28T01:44:43;0.10;;;0.10;;
13012;SDS011;22580;57.670;12.006;2023-04-28T01:47:10;0.57;;;0.30;;
13012;SDS011;22580;57.670;12.006;2023-04-28T01:49:37;1.47;;;0.50;;
13012;SDS011;22580;57.670;12.006;2023-04-28T01:52:04;0.20;;;0.20;;
13012;SDS011;22580;57.670;12.006;2023-04-28T01:54:31;0.20;;;0.20;;
13012;SDS011;22580;57.670;12.006;2023-04-28T01:56:58;0.20;;;0.17;;
13012;SDS011;22580;57.670;12.006;2023-04-28T01:59:27;0.17;;;0.17;;
13012;SDS011;22580;57.670;12.006;2023-04-28T02:01:55;0.13;;;0.10;;
13012;SDS011;22580;57.670;12.006;2023-04-28T02:04:21;0.20;;;0.20;;
13012;SDS011;22580;57.670;12.006;2023-04-28T02:06:48;0.50;;;0.30;;
13012;SDS011;22580;57.670;12.006;2023-04-28T02:09:15;0.47;;;0.30;;
13012;SDS011;22580;57.670;12.006;2023-04-28T02:11:42;0.30;;;0.30;;
13012;SDS011;22580;57.670;12.006;2023-04-28T02:14:09;0.20;;;0.20;;
13012;SDS011;22580;57.670;12.006;2023-04-28T02:16:38;0.27;;;0.27;;
13012;SDS011;22580;57.670;12.006;2023-04-28T02:19:05;0.10;;;0.10;;
13012;SDS011;22580;57.670;12.006;2023-04-28T02:21:31;0.40;;;0.40;;
13012;SDS011;22580;57.670;12.006;2023-04-28T02:23:58;0.20;;;0.20;;
13012;SDS011;22580;57.670;12.006;2023-04-28T02:26:25;0.20;;;0.20;;
13012;SDS011;22580;57.670;12.006;2023-04-28T02:28:52;0.20;;;0.20;;
13012;SDS011;22580;57.670;12.006;2023-04-28T02:31:19;0.20;;;0.20;;
13012;SDS011;22580;57.670;12.006;2023-04-28T02:33:47;0.20;;;0.20;;
13012;SDS011;22580;57.670;12.006;2023-04-28T02:36:14;0.20;;;0.20;;
13012;SDS011;22580;57.670;12.006;2023-04-28T02:38:41;0.20;;;0.20;;
13012;SDS011;22580;57.670;12.006;2023-04-28T02:41:09;0.23;;;0.23;;
13012;SDS011;22580;57.670;12.006;2023-04-28T02:43:36;0.13;;;0.10;;
13012;SDS011;22580;57.670;12.006;2023-04-28T02:46:03;0.83;;;0.10;;
13012;SDS011;22580;57.670;12.006;2023-04-28T02:48:31;0.10;;;0.10;;
13012;SDS011;22580;57.670;12.006;2023-04-28T02:51:01;0.20;;;0.20;;
13012;SDS011;22580;57.670;12.006;2023-04-28T02:53:28;0.10;;;0.10;;
13012;SDS011;22580;57.670;12.006;2023-04-28T02:55:55;0.30;;;0.30;;
13012;SDS011;22580;57.670;12.006;2023-04-28T02:58:22;0.20;;;0.20;;
13012;SDS011;22580;57.670;12.006;2023-04-28T03:00:49;0.30;;;0.30;;
13012;SDS011;22580;57.670;12.006;2023-04-28T03:03:16;0.50;;;0.40;;
13012;SDS011;22580;57.670;12.006;2023-04-28T03:05:43;0.47;;;0.20;;
13012;SDS011;22580;57.670;12.006;2023-04-28T03:08:11;0.30;;;0.30;;
13012;SDS011;22580;57.670;12.006;2023-04-28T03:10:38;0.20;;;0.20;;
13012;SDS011;22580;57.670;12.006;2023-04-28T03:13:05;0.20;;;0.20;;
13012;SDS011;22580;57.670;12.006;2023-04-28T03:15:32;0.37;;;0.20;;
13012;SDS011;22580;57.670;12.006;2023-04-28T03:17:59;0.20;;;0.20;;
13012;SDS011;22580;57.670;12.006;2023-04-28T03:20:26;0.10;;;0.10;;
13012;SDS011;22580;57.670;12.006;2023-04-28T03:22:53;0.13;;;0.13;;
13012;SDS011;22580;57.670;12.006;2023-04-28T03:25:22;0.07;;;0.07;;
13012;SDS011;22580;57.670;12.006;2023-04-28T03:27:49;0.03;;;0.03;;
13012;SDS011;22580;57.670;12.006;2023-04-28T03:30:15;0.17;;;0.13;;
13012;SDS011;22580;57.670;12.006;2023-04-28T03:32:42;0.10;;;0.10;;
13012;SDS011;22580;57.670;12.006;2023-04-28T03:35:09;0.20;;;0.20;;
13012;SDS011;22580;57.670;12.006;2023-04-28T03:37:36;0.30;;;0.30;;
13012;SDS011;22580;57.670;12.006;2023-04-28T03:40:04;0.27;;;0.27;;
13012;SDS011;22580;57.670;12.006;2023-04-28T03:42:33;0.27;;;0.27;;
13012;SDS011;22580;57.670;12.006;2023-04-28T03:45:00;0.20;;;0.20;;
13012;SDS011;22580;57.670;12.006;2023-04-28T03:47:27;0.30;;;0.20;;
13012;SDS011;22580;57.670;12.006;2023-04-28T03:49:54;0.10;;;0.10;;
13012;SDS011;22580;57.670;12.006;2023-04-28T03:52:22;0.20;;;0.20;;
13012;SDS011;22580;57.670;12.006;2023-04-28T03:54:50;0.10;;;0.10;;
13012;SDS011;22580;57.670;12.006;2023-04-28T03:57:17;0.10;;;0.10;;
13012;SDS011;22580;57.670;12.006;2023-04-28T03:59:47;0.30;;;0.30;;
13012;SDS011;22580;57.670;12.006;2023-04-28T04:02:13;1.20;;;0.27;;
13012;SDS011;22580;57.670;12.006;2023-04-28T04:04:40;0.63;;;0.40;;
13012;SDS011;22580;57.670;12.006;2023-04-28T04:07:07;0.40;;;0.40;;
13012;SDS011;22580;57.670;12.006;2023-04-28T04:09:35;1.00;;;0.40;;
13012;SDS011;22580;57.670;12.006;2023-04-28T04:12:03;0.77;;;0.30;;
13012;SDS011;22580;57.670;12.006;2023-04-28T04:14:31;0.30;;;0.30;;
13012;SDS011;22580;57.670;12.006;2023-04-28T04:16:59;0.20;;;0.20;;
13012;SDS011;22580;57.670;12.006;2023-04-28T04:19:27;0.20;;;0.20;;
13012;SDS011;22580;57.670;12.006;2023-04-28T04:21:54;0.13;;;0.13;;
13012;SDS011;22580;57.670;12.006;2023-04-28T04:24:20;0.10;;;0.10;;
13012;SDS011;22580;57.670;12.006;2023-04-28T04:26:47;0.10;;;0.10;;
13012;SDS011;22580;57.670;12.006;2023-04-28T04:29:14;0.20;;;0.20;;
13012;SDS011;22580;57.670;12.006;2023-04-28T04:31:41;0.10;;;0.10;;
13012;SDS011;22580;57.670;12.006;2023-04-28T04:34:10;0.10;;;0.10;;
13012;SDS011;22580;57.670;12.006;2023-04-28T04:36:38;0.10;;;0.10;;
13012;SDS011;22580;57.670;12.006;2023-04-28T04:39:05;0.20;;;0.20;;
13012;SDS011;22580;57.670;12.006;2023-04-28T04:41:32;0.10;;;0.10;;
13012;SDS011;22580;57.670;12.006;2023-04-28T04:43:59;0.10;;;0.10;;
13012;SDS011;22580;57.670;12.006;2023-04-28T04:46:26;0.07;;;0.07;;
13012;SDS011;22580;57.670;12.006;2023-04-28T04:48:53;0.63;;;0.10;;
13012;SDS011;22580;57.670;12.006;2023-04-28T04:51:22;0.10;;;0.10;;
13012;SDS011;22580;57.670;12.006;2023-04-28T04:53:49;0.20;;;0.10;;
13012;SDS011;22580;57.670;12.006;2023-04-28T04:56:16;0.30;;;0.30;;
13012;SDS011;22580;57.670;12.006;2023-04-28T04:58:43;0.30;;;0.30;;
13012;SDS011;22580;57.670;12.006;2023-04-28T05:01:10;0.17;;;0.17;;
13012;SDS011;22580;57.670;12.006;2023-04-28T05:03:37;0.20;;;0.20;;
13012;SDS011;22580;57.670;12.006;2023-04-28T05:06:04;0.20;;;0.20;;
13012;SDS011;22580;57.670;12.006;2023-04-28T05:08:33;0.50;;;0.20;;
13012;SDS011;22580;57.670;12.006;2023-04-28T05:11:00;0.20;;;0.20;;
13012;SDS011;22580;57.670;12.006;2023-04-28T05:13:27;0.10;;;0.10;;
13012;SDS011;22580;57.670;12.006;2023-04-28T05:15:54;0.30;;;0.30;;
13012;SDS011;22580;57.670;12.006;2023-04-28T05:18:21;0.20;;;0.20;;
13012;SDS011;22580;57.670;12.006;2023-04-28T05:20:47;0.33;;;0.33;;
13012;SDS011;22580;57.670;12.006;2023-04-28T05:23:15;0.20;;;0.20;;
13012;SDS011;22580;57.670;12.006;2023-04-28T05:25:43;0.40;;;0.40;;
13012;SDS011;22580;57.670;12.006;2023-04-28T05:28:10;1.03;;;0.50;;
13012;SDS011;22580;57.670;12.006;2023-04-28T05:30:37;0.30;;;0.30;;
13012;SDS011;22580;57.670;12.006;2023-04-28T05:33:04;0.30;;;0.30;;
13012;SDS011;22580;57.670;12.006;2023-04-28T05:35:31;1.20;;;0.50;;
13012;SDS011;22580;57.670;12.006;2023-04-28T05:37:58;0.60;;;0.50;;
13012;SDS011;22580;57.670;12.006;2023-04-28T05:40:25;0.40;;;0.40;;
13012;SDS011;22580;57.670;12.006;2023-04-28T05:42:54;0.40;;;0.40;;
13012;SDS011;22580;57.670;12.006;2023-04-28T05:45:21;0.40;;;0.40;;
13012;SDS011;22580;57.670;12.006;2023-04-28T05:47:48;0.40;;;0.40;;
13012;SDS011;22580;57.670;12.006;2023-04-28T05:50:15;0.83;;;0.50;;
13012;SDS011;22580;57.670;12.006;2023-04-28T05:52:42;0.30;;;0.30;;
13012;SDS011;22580;57.670;12.006;2023-04-28T05:55:09;0.40;;;0.40;;
13012;SDS011;22580;57.670;12.006;2023-04-28T05:57:36;0.33;;;0.33;;
13012;SDS011;22580;57.670;12.006;2023-04-28T06:00:05;0.30;;;0.30;;
13012;SDS011;22580;57.670;12.006;2023-04-28T06:02:32;0.40;;;0.40;;
13012;SDS011;22580;57.670;12.006;2023-04-28T06:05:00;0.60;;;0.50;;
13012;SDS011;22580;57.670;12.006;2023-04-28T06:07:27;0.30;;;0.30;;
13012;SDS011;22580;57.670;12.006;2023-04-28T06:09:53;0.60;;;0.50;;
13012;SDS011;22580;57.670;12.006;2023-04-28T06:12:20;0.40;;;0.40;;
13012;SDS011;22580;57.670;12.006;2023-04-28T06:14:47;0.60;;;0.60;;
13012;SDS011;22580;57.670;12.006;2023-04-28T06:17:18;0.60;;;0.60;;
13012;SDS011;22580;57.670;12.006;2023-04-28T06:19:45;0.43;;;0.40;;
13012;SDS011;22580;57.670;12.006;2023-04-28T06:22:12;0.60;;;0.60;;
13012;SDS011;22580;57.670;12.006;2023-04-28T06:24:39;0.40;;;0.40;;
13012;SDS011;22580;57.670;12.006;2023-04-28T06:27:07;0.30;;;0.20;;
13012;SDS011;22580;57.670;12.006;2023-04-28T06:29:33;1.27;;;1.03;;
13012;SDS011;22580;57.670;12.006;2023-04-28T06:32:00;1.03;;;0.73;;
13012;SDS011;22580;57.670;12.006;2023-04-28T06:34:29;0.53;;;0.53;;
13012;SDS011;22580;57.670;12.006;2023-04-28T06:36:57;1.23;;;0.50;;
13012;SDS011;22580;57.670;12.006;2023-04-28T06:39:24;0.50;;;0.50;;
13012;SDS011;22580;57.670;12.006;2023-04-28T06:41:51;1.43;;;0.70;;
13012;SDS011;22580;57.670;12.006;2023-04-28T06:44:18;1.10;;;0.70;;
13012;SDS011;22580;57.670;12.006;2023-04-28T06:46:44;2.27;;;0.70;;
13012;SDS011;22580;57.670;12.006;2023-04-28T06:49:11;0.60;;;0.50;;
13012;SDS011;22580;57.670;12.006;2023-04-28T06:51:40;0.50;;;0.50;;
13012;SDS011;22580;57.670;12.006;2023-04-28T06:54:07;0.40;;;0.40;;
13012;SDS011;22580;57.670;12.006;2023-04-28T06:56:34;0.93;;;0.60;;
13012;SDS011;22580;57.670;12.006;2023-04-28T06:59:01;0.90;;;0.47;;
13012;SDS011;22580;57.670;12.006;2023-04-28T07:01:28;0.60;;;0.50;;
13012;SDS011;22580;57.670;12.006;2023-04-28T07:03:55;0.50;;;0.47;;
13012;SDS011;22580;57.670;12.006;2023-04-28T07:06:22;0.47;;;0.40;;
13012;SDS011;22580;57.670;12.006;2023-04-28T07:08:52;0.40;;;0.30;;
13012;SDS011;22580;57.670;12.006;2023-04-28T07:11:20;0.30;;;0.30;;
13012;SDS011;22580;57.670;12.006;2023-04-28T07:13:47;0.60;;;0.60;;
13012;SDS011;22580;57.670;12.006;2023-04-28T07:16:15;1.13;;;0.67;;
13012;SDS011;22580;57.670;12.006;2023-04-28T07:18:43;0.97;;;0.40;;
13012;SDS011;22580;57.670;12.006;2023-04-28T07:21:10;0.30;;;0.30;;
13012;SDS011;22580;57.670;12.006;2023-04-28T07:23:37;0.70;;;0.30;;
13012;SDS011;22580;57.670;12.006;2023-04-28T07:26:06;0.70;;;0.50;;
13012;SDS011;22580;57.670;12.006;2023-04-28T07:28:33;0.33;;;0.33;;
13012;SDS011;22580;57.670;12.006;2023-04-28T07:31:00;0.30;;;0.30;;
13012;SDS011;22580;57.670;12.006;2023-04-28T07:33:27;0.40;;;0.40;;
13012;SDS011;22580;57.670;12.006;2023-04-28T07:35:54;1.50;;;0.60;;
13012;SDS011;22580;57.670;12.006;2023-04-28T07:38:21;0.40;;;0.30;;
13012;SDS011;22580;57.670;12.006;2023-04-28T07:40:48;0.57;;;0.20;;
13012;SDS011;22580;57.670;12.006;2023-04-28T07:43:16;0.37;;;0.37;;
13012;SDS011;22580;57.670;12.006;2023-04-28T07:45:43;0.20;;;0.20;;
13012;SDS011;22580;57.670;12.006;2023-04-28T07:48:13;0.30;;;0.30;;
13012;SDS011;22580;57.670;12.006;2023-04-28T07:50:40;0.20;;;0.20;;
13012;SDS011;22580;57.670;12.006;2023-04-28T07:53:07;0.50;;;0.33;;
13012;SDS011;22580;57.670;12.006;2023-04-28T07:55:34;1.07;;;0.70;;
13012;SDS011;22580;57.670;12.006;2023-04-28T07:58:01;0.40;;;0.40;;
13012;SDS011;22580;57.670;12.006;2023-04-28T08:00:31;1.77;;;0.90;;
13012;SDS011;22580;57.670;12.006;2023-04-28T08:02:57;0.70;;;0.70;;
13012;SDS011;22580;57.670;12.006;2023-04-28T08:05:24;1.07;;;0.60;;
13012;SDS011;22580;57.670;12.006;2023-04-28T08:07:51;0.50;;;0.50;;
13012;SDS011;22580;57.670;12.006;2023-04-28T08:10:18;0.53;;;0.47;;
13012;SDS011;22580;57.670;12.006;2023-04-28T08:12:45;0.53;;;0.40;;
13012;SDS011;22580;57.670;12.006;2023-04-28T08:15:12;0.73;;;0.40;;
13012;SDS011;22580;57.670;12.006;2023-04-28T08:17:40;0.70;;;0.70;;
13012;SDS011;22580;57.670;12.006;2023-04-28T08:20:08;0.40;;;0.40;;
13012;SDS011;22580;57.670;12.006;2023-04-28T08:22:35;0.40;;;0.40;;
13012;SDS011;22580;57.670;12.006;2023-04-28T08:25:02;0.70;;;0.50;;
13012;SDS011;22580;57.670;12.006;2023-04-28T08:27:29;0.70;;;0.70;;
13012;SDS011;22580;57.670;12.006;2023-04-28T08:32:28;0.40;;;0.40;;
13012;SDS011;22580;57.670;12.006;2023-04-28T08:34:57;0.80;;;0.30;;
13012;SDS011;22580;57.670;12.006;2023-04-28T08:37:25;0.27;;;0.27;;
13012;SDS011;22580;57.670;12.006;2023-04-28T08:39:52;0.53;;;0.40;;
13012;SDS011;22580;57.670;12.006;2023-04-28T08:42:27;0.53;;;0.40;;
13012;SDS011;22580;57.670;12.006;2023-04-28T08:44:55;0.40;;;0.40;;
13012;SDS011;22580;57.670;12.006;2023-04-28T08:47:24;0.30;;;0.30;;
13012;SDS011;22580;57.670;12.006;2023-04-28T08:50:02;0.50;;;0.40;;
13012;SDS011;22580;57.670;12.006;2023-04-28T08:52:31;0.30;;;0.30;;
13012;SDS011;22580;57.670;12.006;2023-04-28T08:55:00;0.37;;;0.30;;
13012;SDS011;22580;57.670;12.006;2023-04-28T08:57:34;0.40;;;0.40;;
13012;SDS011;22580;57.670;12.006;2023-04-28T09:00:04;1.17;;;0.50;;
13012;SDS011;22580;57.670;12.006;2023-04-28T09:02:31;0.40;;;0.40;;
13012;SDS011;22580;57.670;12.006;2023-04-28T09:04:58;0.67;;;0.30;;
13012;SDS011;22580;57.670;12.006;2023-04-28T09:07:27;0.27;;;0.27;;
13012;SDS011;22580;57.670;12.006;2023-04-28T09:10:14;0.20;;;0.20;;
13012;SDS011;22580;57.670;12.006;2023-04-28T09:12:42;0.20;;;0.20;;
13012;SDS011;22580;57.670;12.006;2023-04-28T09:15:09;0.30;;;0.30;;
13012;SDS011;22580;57.670;12.006;2023-04-28T09:17:46;0.10;;;0.10;;
13012;SDS011;22580;57.670;12.006;2023-04-28T09:20:20;0.20;;;0.10;;
13012;SDS011;22580;57.670;12.006;2023-04-28T09:22:50;0.10;;;0.10;;
13012;SDS011;22580;57.670;12.006;2023-04-28T09:25:18;0.27;;;0.23;;
13012;SDS011;22580;57.670;12.006;2023-04-28T09:27:47;0.30;;;0.30;;
13012;SDS011;22580;57.670;12.006;2023-04-28T09:30:14;0.50;;;0.30;;
13012;SDS011;22580;57.670;12.006;2023-04-28T09:32:41;0.47;;;0.30;;
13012;SDS011;22580;57.670;12.006;2023-04-28T09:35:08;0.87;;;0.40;;
13012;SDS011;22580;57.670;12.006;2023-04-28T09:37:35;0.57;;;0.30;;
13012;SDS011;22580;57.670;12.006;2023-04-28T09:40:05;0.30;;;0.30;;
13012;SDS011;22580;57.670;12.006;2023-04-28T09:42:35;0.73;;;0.40;;
13012;SDS011;22580;57.670;12.006;2023-04-28T09:45:03;0.67;;;0.30;;
13012;SDS011;22580;57.670;12.006;2023-04-28T09:47:32;0.70;;;0.40;;
13012;SDS011;22580;57.670;12.006;2023-04-28T09:52:32;0.70;;;0.30;;
13012;SDS011;22580;57.670;12.006;2023-04-28T09:55:00;0.53;;;0.30;;
13012;SDS011;22580;57.670;12.006;2023-04-28T09:57:31;0.53;;;0.40;;
13012;SDS011;22580;57.670;12.006;2023-04-28T09:59:59;0.50;;;0.40;;
13012;SDS011;22580;57.670;12.006;2023-04-28T10:02:30;0.40;;;0.40;;
13012;SDS011;22580;57.670;12.006;2023-04-28T10:04:57;0.70;;;0.50;;
13012;SDS011;22580;57.670;12.006;2023-04-28T10:07:24;0.40;;;0.33;;
13012;SDS011;22580;57.670;12.006;2023-04-28T10:09:55;0.47;;;0.47;;
13012;SDS011;22580;57.670;12.006;2023-04-28T10:12:23;0.57;;;0.40;;
13012;SDS011;22580;57.670;12.006;2023-04-28T10:14:51;0.53;;;0.40;;
13012;SDS011;22580;57.670;12.006;2023-04-28T10:17:19;0.30;;;0.30;;
13012;SDS011;22580;57.670;12.006;2023-04-28T10:19:49;0.63;;;0.30;;
13012;SDS011;22580;57.670;12.006;2023-04-28T10:22:23;0.40;;;0.40;;
13012;SDS011;22580;57.670;12.006;2023-04-28T10:25:19;0.20;;;0.20;;
13012;SDS011;22580;57.670;12.006;2023-04-28T10:27:51;0.80;;;0.30;;
13012;SDS011;22580;57.670;12.006;2023-04-28T10:30:22;0.40;;;0.30;;
13012;SDS011;22580;57.670;12.006;2023-04-28T10:35:51;0.20;;;0.20;;
13012;SDS011;22580;57.670;12.006;2023-04-28T10:38:18;0.27;;;0.20;;
13012;SDS011;22580;57.670;12.006;2023-04-28T10:40:46;0.47;;;0.47;;
13012;SDS011;22580;57.670;12.006;2023-04-28T10:43:31;0.30;;;0.30;;
13012;SDS011;22580;57.670;12.006;2023-04-28T10:46:03;0.30;;;0.30;;
13012;SDS011;22580;57.670;12.006;2023-04-28T10:48:51;0.30;;;0.30;;
13012;SDS011;22580;57.670;12.006;2023-04-28T10:51:22;0.30;;;0.30;;
13012;SDS011;22580;57.670;12.006;2023-04-28T10:54:14;0.37;;;0.37;;
13012;SDS011;22580;57.670;12.006;2023-04-28T10:59:45;0.50;;;0.47;;
13012;SDS011;22580;57.670;12.006;2023-04-28T11:05:15;0.45;;;0.30;;
13012;SDS011;22580;57.670;12.006;2023-04-28T11:11:11;0.38;;;0.38;;
13012;SDS011;22580;57.670;12.006;2023-04-28T11:13:40;0.50;;;0.43;;
13012;SDS011;22580;57.670;12.006;2023-04-28T11:16:07;0.30;;;0.30;;
13012;SDS011;22580;57.670;12.006;2023-04-28T11:18:42;0.57;;;0.50;;
13012;SDS011;22580;57.670;12.006;2023-04-28T11:21:16;0.90;;;0.50;;
13012;SDS011;22580;57.670;12.006;2023-04-28T11:23:43;1.30;;;0.70;;
13012;SDS011;22580;57.670;12.006;2023-04-28T11:26:11;0.67;;;0.67;;
13012;SDS011;22580;57.670;12.006;2023-04-28T11:28:45;0.40;;;0.40;;
13012;SDS011;22580;57.670;12.006;2023-04-28T11:31:13;0.60;;;0.60;;
13012;SDS011;22580;57.670;12.006;2023-04-28T11:33:45;0.50;;;0.50;;
13012;SDS011;22580;57.670;12.006;2023-04-28T11:36:28;0.45;;;0.40;;
13012;SDS011;22580;57.670;12.006;2023-04-28T11:38:59;0.35;;;0.35;;
13012;SDS011;22580;57.670;12.006;2023-04-28T11:41:27;0.70;;;0.47;;
13012;SDS011;22580;57.670;12.006;2023-04-28T11:43:54;0.67;;;0.50;;
13012;SDS011;22580;57.670;12.006;2023-04-28T11:46:22;0.50;;;0.50;;
13012;SDS011;22580;57.670;12.006;2023-04-28T11:49:00;0.77;;;0.30;;
13012;SDS011;22580;57.670;12.006;2023-04-28T11:51:29;0.50;;;0.50;;
13012;SDS011;22580;57.670;12.006;2023-04-28T11:53:57;0.90;;;0.40;;
13012;SDS011;22580;57.670;12.006;2023-04-28T11:56:25;0.50;;;0.50;;
13012;SDS011;22580;57.670;12.006;2023-04-28T11:58:58;0.60;;;0.40;;
13012;SDS011;22580;57.670;12.006;2023-04-28T12:01:28;0.63;;;0.40;;
13012;SDS011;22580;57.670;12.006;2023-04-28T12:03:55;1.00;;;0.50;;
13012;SDS011;22580;57.670;12.006;2023-04-28T12:06:24;0.50;;;0.50;;
13012;SDS011;22580;57.670;12.006;2023-04-28T12:08:52;1.40;;;0.67;;
13012;SDS011;22580;57.670;12.006;2023-04-28T12:11:19;0.70;;;0.50;;
13012;SDS011;22580;57.670;12.006;2023-04-28T12:14:02;0.63;;;0.60;;
13012;SDS011;22580;57.670;12.006;2023-04-28T12:16:36;0.90;;;0.50;;
13012;SDS011;22580;57.670;12.006;2023-04-28T12:19:09;1.00;;;0.50;;
13012;SDS011;22580;57.670;12.006;2023-04-28T12:21:38;0.30;;;0.30;;
13012;SDS011;22580;57.670;12.006;2023-04-28T12:24:15;0.50;;;0.40;;
13012;SDS011;22580;57.670;12.006;2023-04-28T12:26:43;0.37;;;0.30;;
13012;SDS011;22580;57.670;12.006;2023-04-28T12:32:01;0.37;;;0.33;;
13012;SDS011;22580;57.670;12.006;2023-04-28T12:34:29;0.73;;;0.40;;
13012;SDS011;22580;57.670;12.006;2023-04-28T12:36:59;0.70;;;0.40;;
13012;SDS011;22580;57.670;12.006;2023-04-28T12:39:26;0.50;;;0.50;;
13012;SDS011;22580;57.670;12.006;2023-04-28T12:41:54;0.40;;;0.40;;
13012;SDS011;22580;57.670;12.006;2023-04-28T12:44:23;0.30;;;0.30;;
13012;SDS011;22580;57.670;12.006;2023-04-28T12:46:52;0.60;;;0.43;;
13012;SDS011;22580;57.670;12.006;2023-04-28T12:49:20;0.40;;;0.40;;
13012;SDS011;22580;57.670;12.006;2023-04-28T12:51:47;0.50;;;0.40;;
13012;SDS011;22580;57.670;12.006;2023-04-28T12:54:16;0.63;;;0.40;;
13012;SDS011;22580;57.670;12.006;2023-04-28T12:56:43;0.50;;;0.50;;
13012;SDS011;22580;57.670;12.006;2023-04-28T12:59:10;0.90;;;0.50;;
13012;SDS011;22580;57.670;12.006;2023-04-28T13:01:37;0.37;;;0.37;;
13012;SDS011;22580;57.670;12.006;2023-04-28T13:04:04;0.40;;;0.40;;
13012;SDS011;22580;57.670;12.006;2023-04-28T13:06:31;0.32;;;0.32;;
13012;SDS011;22580;57.670;12.006;2023-04-28T13:08:59;0.43;;;0.40;;
13012;SDS011;22580;57.670;12.006;2023-04-28T13:11:29;1.23;;;0.68;;
13012;SDS011;22580;57.670;12.006;2023-04-28T13:13:56;0.95;;;0.40;;
13012;SDS011;22580;57.670;12.006;2023-04-28T13:16:23;0.30;;;0.30;;
13012;SDS011;22580;57.670;12.006;2023-04-28T13:18:55;1.33;;;0.52;;
13012;SDS011;22580;57.670;12.006;2023-04-28T13:21:23;0.53;;;0.50;;
13012;SDS011;22580;57.670;12.006;2023-04-28T13:23:50;0.47;;;0.47;;
13012;SDS011;22580;57.670;12.006;2023-04-28T13:26:18;0.68;;;0.43;;
13012;SDS011;22580;57.670;12.006;2023-04-28T13:28:49;0.47;;;0.47;;
13012;SDS011;22580;57.670;12.006;2023-04-28T13:31:17;0.60;;;0.60;;
13012;SDS011;22580;57.670;12.006;2023-04-28T13:33:45;0.93;;;0.52;;
13012;SDS011;22580;57.670;12.006;2023-04-28T13:36:12;0.40;;;0.40;;
13012;SDS011;22580;57.670;12.006;2023-04-28T13:38:39;0.83;;;0.50;;
13012;SDS011;22580;57.670;12.006;2023-04-28T13:41:06;0.40;;;0.40;;
13012;SDS011;22580;57.670;12.006;2023-04-28T13:43:33;1.05;;;0.60;;
13012;SDS011;22580;57.670;12.006;2023-04-28T13:46:03;0.80;;;0.70;;
13012;SDS011;22580;57.670;12.006;2023-04-28T13:48:32;0.37;;;0.37;;
13012;SDS011;22580;57.670;12.006;2023-04-28T13:50:59;0.87;;;0.60;;
13012;SDS011;22580;57.670;12.006;2023-04-28T13:53:26;0.40;;;0.40;;
13012;SDS011;22580;57.670;12.006;2023-04-28T13:55:53;0.30;;;0.30;;
13012;SDS011;22580;57.670;12.006;2023-04-28T13:58:21;0.38;;;0.30;;
13012;SDS011;22580;57.670;12.006;2023-04-28T14:00:48;0.40;;;0.30;;
13012;SDS011;22580;57.670;12.006;2023-04-28T14:03:17;0.22;;;0.22;;
13012;SDS011;22580;57.670;12.006;2023-04-28T14:05:46;0.80;;;0.73;;
13012;SDS011;22580;57.670;12.006;2023-04-28T14:08:13;1.13;;;0.40;;
13012;SDS011;22580;57.670;12.006;2023-04-28T14:10:40;1.50;;;1.40;;
13012;SDS011;22580;57.670;12.006;2023-04-28T14:13:07;0.80;;;0.80;;
13012;SDS011;22580;57.670;12.006;2023-04-28T14:15:34;1.17;;;0.68;;
13012;SDS011;22580;57.670;12.006;2023-04-28T14:18:04;0.50;;;0.50;;
13012;SDS011;22580;57.670;12.006;2023-04-28T14:20:34;1.15;;;0.38;;
13012;SDS011;22580;57.670;12.006;2023-04-28T14:23:01;0.40;;;0.40;;
13012;SDS011;22580;57.670;12.006;2023-04-28T14:25:29;0.88;;;0.30;;
13012;SDS011;22580;57.670;12.006;2023-04-28T14:27:57;0.20;;;0.20;;
13012;SDS011;22580;57.670;12.006;2023-04-28T14:30:24;0.30;;;0.30;;
13012;SDS011;22580;57.670;12.006;2023-04-28T14:32:51;0.40;;;0.40;;
13012;SDS011;22580;57.670;12.006;2023-04-28T14:35:19;0.28;;;0.28;;
13012;SDS011;22580;57.670;12.006;2023-04-28T14:37:48;0.45;;;0.45;;
13012;SDS011;22580;57.670;12.006;2023-04-28T14:40:15;0.30;;;0.30;;
13012;SDS011;22580;57.670;12.006;2023-04-28T14:42:42;0.45;;;0.40;;
13012;SDS011;22580;57.670;12.006;2023-04-28T14:45:09;0.52;;;0.38;;
13012;SDS011;22580;57.670;12.006;2023-04-28T14:47:37;0.40;;;0.40;;
13012;SDS011;22580;57.670;12.006;2023-04-28T14:50:05;0.30;;;0.30;;
13012;SDS011;22580;57.670;12.006;2023-04-28T14:52:33;0.55;;;0.30;;
13012;SDS011;22580;57.670;12.006;2023-04-28T14:55:02;0.28;;;0.20;;
13012;SDS011;22580;57.670;12.006;2023-04-28T14:57:30;0.22;;;0.20;;
13012;SDS011;22580;57.670;12.006;2023-04-28T14:59:58;0.32;;;0.32;;